Time;durP1;ratioP1;P1;durP2;ratioP2;P2;SDS_P1;SDS_P2;PMS_P1;PMS_P2;Temp;Humidity;BMP_temperature;BMP_pressure;BME280_temperature;BME280_humidity;BME280_pressure;Samples;Min_cycle;Max_cycle;Signal;HPM_P1;HPM_P2
2023/01/20 00:01:15;;;;;;;9.38;3.30;;;;;;;13.13;100.00;99816.56;5049694;28;20040;-73
2023/01/20 00:03:43;;;;;;;9.65;3.45;;;;;;;13.04;100.00;99814.69;5048811;28;20032;-73
2023/01/20 00:06:11;;;;;;;10.15;3.80;;;;;;;13.07;100.00;99793.13;5049460;28;20033;-73
2023/01/20 00:08:37;;;;;;;7.95;3.42;;;;;;;12.96;100.00;99800.75;5049479;28;20036;-73
2023/01/20 00:11:04;;;;;;;10.80;3.58;;;;;;;12.90;100.00;99791.16;5047840;28;20033;-73
2023/01/20 00:13:30;;;;;;;8.48;3.22;;;;;;;12.89;100.00;99789.41;5046183;28;20055;-72
2023/01/20 00:15:56;;;;;;;10.18;3.70;;;;;;;12.89;100.00;99791.13;5041238;28;20415;-72
2023/01/20 00:18:21;;;;;;;7.80;3.33;;;;;;;12.90;100.00;99795.47;5029417;28;20068;-71
2023/01/20 00:20:46;;;;;;;6.90;3.00;;;;;;;12.83;100.00;99783.25;5029793;28;20166;-71
2023/01/20 00:23:12;;;;;;;15.38;4.45;;;;;;;12.82;100.00;99773.75;5029901;28;20044;-71
2023/01/20 00:25:37;;;;;;;8.15;3.92;;;;;;;12.65;100.00;99753.63;5030065;28;20030;-71
2023/01/20 00:28:03;;;;;;;9.48;3.90;;;;;;;12.48;100.00;99747.28;5030611;28;20034;-73
2023/01/20 00:30:29;;;;;;;13.82;3.88;;;;;;;12.58;100.00;99772.47;5033687;28;20084;-72
2023/01/20 00:32:54;;;;;;;11.98;4.13;;;;;;;12.50;100.00;99761.09;5033849;28;20033;-71
2023/01/20 00:35:19;;;;;;;13.05;4.68;;;;;;;12.57;100.00;99737.97;5033835;28;20026;-71
2023/01/20 00:37:45;;;;;;;8.90;4.07;;;;;;;12.86;100.00;99772.94;5033626;28;20034;-70
2023/01/20 00:40:11;;;;;;;11.43;4.45;;;;;;;12.75;100.00;99763.28;5031433;28;20037;-72
2023/01/20 00:42:36;;;;;;;8.52;4.15;;;;;;;12.87;100.00;99770.38;5033531;28;20414;-70
2023/01/20 00:45:02;;;;;;;14.02;4.50;;;;;;;12.96;100.00;99767.06;5033758;28;20103;-71
2023/01/20 00:47:27;;;;;;;8.52;4.07;;;;;;;13.02;100.00;99755.91;5033577;28;20028;-71
2023/01/20 00:49:52;;;;;;;10.90;4.28;;;;;;;13.09;100.00;99750.00;5033756;28;20028;-71
2023/01/20 00:52:18;;;;;;;9.88;4.35;;;;;;;13.02;100.00;99743.84;5033500;28;20040;-72
2023/01/20 00:54:44;;;;;;;12.02;4.68;;;;;;;13.04;100.00;99749.91;5033807;28;20026;-73
2023/01/20 00:57:10;;;;;;;8.60;3.92;;;;;;;12.97;100.00;99723.88;5033363;28;20487;-73
2023/01/20 00:59:36;;;;;;;15.02;5.20;;;;;;;13.04;100.00;99747.31;5033512;28;20018;-72
2023/01/20 01:02:01;;;;;;;13.52;5.30;;;;;;;12.55;100.00;99661.09;5033033;28;20043;-73
2023/01/20 01:04:27;;;;;;;10.23;4.18;;;;;;;13.00;100.00;99745.53;5033151;28;20458;-72
2023/01/20 01:06:53;;;;;;;13.13;4.80;;;;;;;12.97;100.00;99731.66;5033170;28;20403;-72
2023/01/20 01:09:20;;;;;;;9.98;4.70;;;;;;;12.97;100.00;99724.75;5014376;28;20034;-72
2023/01/20 01:11:49;;;;;;;11.15;4.68;;;;;;;13.11;100.00;99733.59;5032924;28;20403;-72
2023/01/20 01:14:15;;;;;;;12.00;5.20;;;;;;;13.29;100.00;99715.72;5033039;28;20049;-72
2023/01/20 01:16:40;;;;;;;9.35;4.90;;;;;;;13.43;100.00;99698.63;5032756;28;20034;-72
2023/01/20 01:19:06;;;;;;;7.80;4.50;;;;;;;13.50;100.00;99704.78;5033061;28;20029;-72
2023/01/20 01:21:31;;;;;;;10.80;4.68;;;;;;;13.51;100.00;99694.44;5032440;28;20029;-72
2023/01/20 01:23:57;;;;;;;10.48;5.60;;;;;;;13.46;100.00;99680.53;5032902;28;20105;-72
2023/01/20 01:26:22;;;;;;;13.68;4.95;;;;;;;13.64;100.00;99707.56;5033242;28;20087;-72
2023/01/20 01:28:49;;;;;;;11.55;4.13;;;;;;;13.64;100.00;99700.63;5032444;28;20025;-71
2023/01/20 01:31:17;;;;;;;10.88;4.32;;;;;;;13.64;100.00;99699.78;5032633;28;20037;-71
2023/01/20 01:33:43;;;;;;;8.60;3.97;;;;;;;13.63;100.00;99688.50;5032504;28;20167;-71
2023/01/20 01:36:12;;;;;;;7.30;4.10;;;;;;;13.71;100.00;99691.22;5032653;28;20116;-71
2023/01/20 01:38:38;;;;;;;10.40;4.28;;;;;;;13.64;100.00;99679.88;5032452;28;20029;-71
2023/01/20 01:41:04;;;;;;;14.45;5.88;;;;;;;13.73;100.00;99692.97;5031455;28;20531;-71
2023/01/20 01:43:35;;;;;;;8.20;3.85;;;;;;;13.38;100.00;99596.59;5032462;28;20064;-70
2023/01/20 01:46:02;;;;;;;10.40;4.57;;;;;;;13.85;100.00;99666.28;5032464;28;20057;-72
2023/01/20 01:48:42;;;;;;;12.65;5.03;;;;;;;13.97;100.00;99669.84;5032363;28;20034;-71
2023/01/20 01:51:12;;;;;;;10.10;3.90;;;;;;;13.42;100.00;99599.25;5032342;28;20047;-71
2023/01/20 01:53:40;;;;;;;;;;;;;;;13.87;100.00;99679.28;5031873;28;20107;-71
2023/01/20 01:56:07;;;;;;;13.73;4.68;;;;;;;13.37;100.00;99606.13;5031939;28;20366;-71
2023/01/20 01:58:37;;;;;;;12.40;4.20;;;;;;;13.77;100.00;99667.94;5032300;28;20037;-71
2023/01/20 02:01:03;;;;;;;11.18;4.57;;;;;;;13.71;100.00;99663.53;5032003;28;20454;-71
2023/01/20 02:03:39;;;;;;;8.98;4.28;;;;;;;13.71;100.00;99671.31;5031947;28;20029;-71
2023/01/20 02:06:06;;;;;;;8.20;3.67;;;;;;;13.24;100.00;99599.00;5031804;28;20553;-71
2023/01/20 02:08:32;;;;;;;9.23;3.83;;;;;;;13.63;100.00;99670.34;5029570;28;20124;-71
2023/01/20 02:10:58;;;;;;;10.57;3.78;;;;;;;13.66;100.00;99675.59;5031779;28;20021;-72
2023/01/20 02:13:23;;;;;;;13.35;4.57;;;;;;;13.65;100.00;99658.28;5030689;28;20411;-71
2023/01/20 02:16:08;;;;;;;11.85;4.95;;;;;;;13.90;100.00;99713.03;5031673;28;20068;-72
2023/01/20 02:18:49;;;;;;;17.90;4.75;;;;;;;13.89;100.00;99708.69;5031938;28;20030;-71
2023/01/20 02:21:29;;;;;;;14.70;4.60;;;;;;;13.87;100.00;99724.25;5031708;28;20026;-73
2023/01/20 02:24:16;;;;;;;14.60;5.15;;;;;;;13.89;100.00;99721.66;5031684;28;20033;-72
2023/01/20 02:27:22;;;;;;;11.90;4.63;;;;;;;13.92;100.00;99716.53;5031611;28;20048;-71
2023/01/20 02:30:26;;;;;;;11.38;4.32;;;;;;;13.78;100.00;99705.13;5009196;28;20057;-72
2023/01/20 02:32:59;;;;;;;12.73;3.75;;;;;;;13.70;100.00;99702.44;4951118;29;20035;-71
2023/01/20 02:35:34;;;;;;;13.35;4.35;;;;;;;13.68;100.00;99694.66;4950858;29;20043;-72
2023/01/20 02:38:11;;;;;;;9.55;4.15;;;;;;;13.67;100.00;99703.28;4950841;29;20043;-71
2023/01/20 02:40:36;;;;;;;13.98;4.88;;;;;;;13.63;100.00;99714.44;4950800;29;20039;-72
2023/01/20 02:43:33;;;;;;;10.73;4.15;;;;;;;13.64;100.00;99721.38;4950821;29;20046;-72
2023/01/20 02:46:18;;;;;;;12.70;4.80;;;;;;;13.63;100.00;99721.38;4893662;29;20048;-71
2023/01/20 02:48:52;;;;;;;12.98;4.38;;;;;;;13.59;100.00;99712.69;4893848;29;20036;-72
2023/01/20 02:51:26;;;;;;;15.05;4.60;;;;;;;13.65;100.00;99724.88;4893427;29;20044;-72
2023/01/20 02:54:05;;;;;;;12.95;4.38;;;;;;;13.47;100.00;99684.88;4893821;29;20052;-71
2023/01/20 02:56:33;;;;;;;13.23;3.63;;;;;;;13.62;100.00;99704.94;4893417;29;20051;-72
2023/01/20 02:59:11;;;;;;;10.30;4.22;;;;;;;13.57;100.00;99683.25;4893577;29;20116;-71
2023/01/20 03:01:51;;;;;;;10.63;4.43;;;;;;;13.58;100.00;99672.03;4893654;29;20598;-72
2023/01/20 03:04:24;;;;;;;10.10;3.97;;;;;;;13.54;100.00;99683.22;4922792;29;20051;-72
2023/01/20 03:06:53;;;;;;;8.02;3.20;;;;;;;12.79;100.00;99590.66;4943342;28;20453;-72
2023/01/20 03:09:25;;;;;;;9.00;3.58;;;;;;;13.13;100.00;99660.19;4950418;28;20122;-71
2023/01/20 03:11:56;;;;;;;12.25;3.83;;;;;;;13.15;100.00;99667.16;4950165;28;20055;-72
2023/01/20 03:14:22;;;;;;;9.63;3.22;;;;;;;13.30;100.00;99684.63;4950360;29;20118;-70
2023/01/20 03:16:49;;;;;;;10.77;3.95;;;;;;;13.21;100.00;99661.19;4950280;29;20565;-72
2023/01/20 03:19:16;;;;;;;8.73;3.70;;;;;;;13.02;100.00;99609.13;4950348;29;20070;-71
2023/01/20 03:21:42;;;;;;;11.77;3.72;;;;;;;13.42;100.00;99678.75;4956939;28;20070;-71
2023/01/20 03:24:07;;;;;;;5.60;3.10;;;;;;;12.97;100.00;99590.03;5030875;28;20045;-73
2023/01/20 03:26:33;;;;;;;10.98;3.88;;;;;;;13.39;100.00;99670.94;5030757;28;20037;-72
2023/01/20 03:29:05;;;;;;;6.97;3.40;;;;;;;13.33;100.00;99666.50;5030699;28;20108;-72
2023/01/20 03:31:38;;;;;;;8.07;3.60;;;;;;;13.17;100.00;99649.91;5030689;28;20036;-72
2023/01/20 03:34:09;;;;;;;9.57;3.40;;;;;;;13.33;100.00;99692.44;5029115;28;20422;-72
2023/01/20 03:36:36;;;;;;;8.45;3.50;;;;;;;13.20;100.00;99654.25;5030731;28;20033;-71
2023/01/20 03:39:02;;;;;;;8.75;3.40;;;;;;;13.36;100.00;99682.09;5030622;28;20021;-71
2023/01/20 03:41:46;;;;;;;10.02;3.97;;;;;;;13.41;100.00;99672.69;5030546;28;20022;-71
2023/01/20 03:44:31;;;;;;;7.63;3.47;;;;;;;13.05;100.00;99597.91;5030347;28;20385;-72
2023/01/20 03:47:20;;;;;;;9.57;3.78;;;;;;;13.47;100.00;99678.81;5028501;28;20069;-70
2023/01/20 03:50:05;;;;;;;9.25;3.53;;;;;;;13.52;100.00;99677.13;5012915;28;20087;-72
2023/01/20 03:52:47;;;;;;;10.45;3.83;;;;;;;13.53;100.00;99673.69;5010825;28;20488;-72
2023/01/20 03:55:19;;;;;;;9.98;3.90;;;;;;;13.57;100.00;99672.88;5024465;28;20044;-71
2023/01/20 03:57:55;;;;;;;11.93;4.68;;;;;;;13.07;100.00;99604.84;5010621;28;20120;-72
2023/01/20 04:00:45;;;;;;;10.60;4.28;;;;;;;13.57;100.00;99691.03;5017309;28;20033;-73
2023/01/20 04:03:15;;;;;;;8.70;4.10;;;;;;;13.38;100.00;99651.03;4997251;28;20043;-73
2023/01/20 04:08:58;;;;;;;9.15;3.60;;;;;;;13.56;100.00;99674.59;5076595;22;20495;-73
2023/01/20 04:11:24;;;;;;;8.38;4.00;;;;;;;13.58;100.00;99674.63;5014715;28;20097;-72
2023/01/20 04:13:50;;;;;;;11.65;4.30;;;;;;;13.22;100.00;99609.38;5014453;28;20061;-73
2023/01/20 04:16:18;;;;;;;9.93;4.20;;;;;;;13.52;100.00;99669.34;5014402;28;20072;-72
2023/01/20 04:18:47;;;;;;;9.52;3.80;;;;;;;13.18;100.00;99606.69;5014514;28;20555;-72
2023/01/20 04:21:27;;;;;;;10.90;4.40;;;;;;;13.50;100.00;99656.38;5014385;28;20022;-72
2023/01/20 04:24:25;;;;;;;10.13;4.38;;;;;;;13.51;100.00;99641.72;5014614;28;20034;-72
2023/01/20 04:26:51;;;;;;;8.05;3.95;;;;;;;13.47;100.00;99652.88;5014323;28;20041;-72
2023/01/20 04:29:16;;;;;;;10.73;4.25;;;;;;;13.43;100.00;99668.41;4999220;28;20472;-72
2023/01/20 04:31:42;;;;;;;8.63;4.28;;;;;;;13.26;100.00;99652.59;5003152;28;20061;-71
2023/01/20 04:34:11;;;;;;;11.20;4.18;;;;;;;13.26;100.00;99649.16;5014127;28;20042;-72
2023/01/20 04:36:37;;;;;;;;;;;;;;;13.32;100.00;99672.56;5014403;28;20037;-71
2023/01/20 04:39:02;;;;;;;7.38;3.30;;;;;;;13.25;100.00;99678.50;5014535;28;20291;-72
2023/01/20 04:41:28;;;;;;;10.07;4.15;;;;;;;13.18;100.00;99669.75;5014132;28;20061;-71
2023/01/20 04:43:53;;;;;;;9.38;3.60;;;;;;;13.15;100.00;99655.91;5014247;28;20459;-71
2023/01/20 04:46:20;;;;;;;7.28;3.17;;;;;;;13.14;100.00;99687.88;5013888;28;20034;-72
2023/01/20 04:48:45;;;;;;;9.25;3.45;;;;;;;13.01;100.00;99651.41;5013838;28;20026;-72
2023/01/20 04:51:12;;;;;;;10.50;3.65;;;;;;;12.69;100.00;99602.59;5013714;28;20405;-72
2023/01/20 04:53:37;;;;;;;7.68;3.72;;;;;;;13.00;100.00;99662.63;5013977;28;20481;-72
2023/01/20 04:56:03;;;;;;;8.48;3.70;;;;;;;13.02;100.00;99671.31;5013693;28;20030;-72
2023/01/20 04:58:29;;;;;;;6.75;3.42;;;;;;;12.82;100.00;99634.72;5012986;28;20109;-72
2023/01/20 05:00:54;;;;;;;6.93;3.47;;;;;;;12.98;100.00;99634.94;5012987;28;20036;-71
2023/01/20 05:03:20;;;;;;;11.13;4.45;;;;;;;12.89;100.00;99638.28;5013494;28;20156;-71
2023/01/20 05:05:55;;;;;;;10.38;4.00;;;;;;;12.98;100.00;99653.09;5013509;28;20053;-73
2023/01/20 05:08:21;;;;;;;7.97;4.15;;;;;;;12.85;100.00;99647.72;5013568;28;20140;-72
2023/01/20 05:10:46;;;;;;;6.07;3.50;;;;;;;12.78;100.00;99662.31;5013370;28;20097;-71
2023/01/20 05:13:12;;;;;;;6.57;3.78;;;;;;;12.88;100.00;99678.00;5013355;28;20451;-72
2023/01/20 05:15:39;;;;;;;7.70;3.30;;;;;;;12.66;100.00;99631.06;5013223;28;20026;-71
2023/01/20 05:18:04;;;;;;;10.73;3.67;;;;;;;12.26;100.00;99574.38;5013177;28;20036;-72
2023/01/20 05:20:30;;;;;;;7.45;3.80;;;;;;;12.65;100.00;99615.47;5013215;28;20022;-71
2023/01/20 05:22:55;;;;;;;8.32;3.30;;;;;;;12.40;100.00;99579.75;5013550;28;20399;-71
2023/01/20 05:25:21;;;;;;;8.32;3.65;;;;;;;12.77;100.00;99644.16;5013390;28;20022;-71
2023/01/20 05:27:46;;;;;;;11.18;4.00;;;;;;;12.64;100.00;99598.22;5008668;28;20030;-72
2023/01/20 05:30:12;;;;;;;11.73;4.47;;;;;;;12.76;100.00;99626.84;5013064;28;20435;-70
2023/01/20 05:32:37;;;;;;;12.25;4.32;;;;;;;12.77;100.00;99645.03;5013045;28;20037;-71
2023/01/20 05:35:03;;;;;;;8.05;4.22;;;;;;;12.82;100.00;99650.25;5012887;28;20396;-71
2023/01/20 05:37:29;;;;;;;10.20;5.20;;;;;;;12.62;100.00;99614.59;5012741;28;20109;-71
2023/01/20 05:39:54;;;;;;;10.45;6.57;;;;;;;12.56;100.00;99644.69;5012834;28;20471;-71
2023/01/20 05:42:19;;;;;;;13.52;8.52;;;;;;;12.46;100.00;99656.63;5012923;28;20030;-70
2023/01/20 05:44:45;;;;;;;6.47;4.30;;;;;;;12.16;100.00;99603.50;5012884;28;20021;-72
2023/01/20 05:47:10;;;;;;;7.65;4.32;;;;;;;12.27;100.00;99607.16;5012908;28;20040;-71
2023/01/20 05:49:36;;;;;;;9.00;5.10;;;;;;;11.85;100.00;99527.97;5011383;28;20040;-71
2023/01/20 05:55:00;;;;;;;8.48;4.78;;;;;;;11.67;100.00;99528.53;5116856;22;20536;-71
2023/01/20 05:57:26;;;;;;;7.22;4.35;;;;;;;12.12;100.00;99627.59;5012600;28;20112;-71
2023/01/20 05:59:51;;;;;;;11.88;5.03;;;;;;;11.56;100.00;99567.09;5012404;28;20025;-70
2023/01/20 06:02:18;;;;;;;11.25;5.60;;;;;;;12.02;100.00;99646.41;5012983;28;20113;-70
2023/01/20 06:04:48;;;;;;;10.88;5.22;;;;;;;12.00;100.00;99661.91;5017307;28;20034;-70
2023/01/20 06:07:14;;;;;;;10.45;4.90;;;;;;;11.98;100.00;99667.03;5027316;28;20029;-70
2023/01/20 06:09:40;;;;;;;9.75;4.97;;;;;;;12.02;100.00;99657.59;5032421;28;20033;-71
2023/01/20 06:12:05;;;;;;;8.88;5.13;;;;;;;12.06;100.00;99654.25;5031880;28;20380;-71
2023/01/20 06:14:31;;;;;;;7.82;4.70;;;;;;;12.05;100.00;99659.38;5031909;28;20028;-70
2023/01/20 06:16:56;;;;;;;7.30;3.88;;;;;;;11.58;100.00;99560.25;5032069;28;20071;-75
2023/01/20 06:19:21;;;;;;;11.23;6.00;;;;;;;12.12;100.00;99643.13;5031754;28;20036;-70
2023/01/20 06:21:47;;;;;;;9.35;6.28;;;;;;;12.09;100.00;99641.34;5031997;28;20392;-71
2023/01/20 06:24:13;;;;;;;11.25;5.40;;;;;;;11.63;100.00;99556.03;5031886;28;20450;-69
2023/01/20 06:26:38;;;;;;;12.05;6.20;;;;;;;12.07;100.00;99629.25;5031175;28;20104;-71
2023/01/20 06:29:04;;;;;;;9.40;5.53;;;;;;;12.06;100.00;99630.09;5031510;28;20053;-71
2023/01/20 06:31:29;;;;;;;7.80;4.82;;;;;;;12.00;100.00;99633.44;5031809;28;20029;-70
2023/01/20 06:37:16;;;;;;;7.20;3.47;;;;;;;11.94;100.00;99615.19;5057318;22;20530;-70
2023/01/20 06:39:42;;;;;;;7.85;3.80;;;;;;;11.86;100.00;99562.47;5026838;28;20025;-71
2023/01/20 06:42:07;;;;;;;6.65;3.55;;;;;;;11.25;100.00;99512.28;5031839;28;20036;-72
2023/01/20 06:44:33;;;;;;;11.63;4.05;;;;;;;11.58;100.00;99575.75;5031770;28;20029;-71
2023/01/20 06:46:58;;;;;;;5.43;3.03;;;;;;;11.32;100.00;99518.44;5031340;28;20029;-71
2023/01/20 06:49:24;;;;;;;4.88;3.10;;;;;;;11.65;100.00;99543.13;5031623;28;20033;-71
2023/01/20 06:51:49;;;;;;;3.47;1.80;;;;;;;11.87;100.00;99536.63;5031568;28;20033;-71
2023/01/20 06:54:15;;;;;;;4.32;2.00;;;;;;;11.94;100.00;99558.28;5031502;28;20025;-72
2023/01/20 06:56:41;;;;;;;4.15;2.33;;;;;;;12.00;100.00;99580.81;5031476;28;20091;-72
2023/01/20 06:59:09;;;;;;;4.70;2.33;;;;;;;11.94;100.00;99586.75;5029049;28;20041;-71
2023/01/20 07:01:34;;;;;;;5.45;2.80;;;;;;;11.91;100.00;99576.34;5031124;28;20507;-71
2023/01/20 07:04:01;;;;;;;4.88;2.60;;;;;;;11.80;100.00;99577.03;5031128;28;20021;-71
2023/01/20 07:06:37;;;;;;;6.82;2.75;;;;;;;11.67;100.00;99572.47;5031008;28;20128;-71
2023/01/20 07:09:04;;;;;;;5.57;2.60;;;;;;;11.63;100.00;99568.09;5031243;28;20064;-71
2023/01/20 07:11:33;;;;;;;5.72;2.90;;;;;;;11.61;100.00;99562.91;5031220;28;20029;-72
2023/01/20 07:13:59;;;;;;;5.40;2.75;;;;;;;11.33;100.00;99522.75;5030965;28;20021;-71
2023/01/20 07:16:24;;;;;;;6.38;2.97;;;;;;;11.45;100.00;99533.31;5028799;28;20128;-71
2023/01/20 07:18:51;;;;;;;6.07;3.03;;;;;;;11.12;100.00;99505.13;5031383;28;20029;-71
2023/01/20 07:21:17;;;;;;;4.47;3.05;;;;;;;11.60;100.00;99601.63;5030796;28;20026;-71
2023/01/20 07:23:43;;;;;;;6.32;2.95;;;;;;;11.75;100.00;99632.97;5028792;28;20538;-71
2023/01/20 07:26:11;;;;;;;6.40;3.55;;;;;;;11.75;100.00;99616.56;5030469;28;20026;-71
2023/01/20 07:28:38;;;;;;;5.30;3.15;;;;;;;11.74;100.00;99614.81;5030900;28;20029;-71
2023/01/20 07:31:10;;;;;;;8.20;3.72;;;;;;;11.74;100.00;99613.13;5031062;28;20112;-71
2023/01/20 07:33:36;;;;;;;9.73;4.63;;;;;;;11.71;100.00;99599.25;5030906;28;20060;-71
2023/01/20 07:36:02;;;;;;;4.80;2.90;;;;;;;11.64;100.00;99601.72;5030622;28;20048;-71
2023/01/20 07:38:28;;;;;;;7.10;3.65;;;;;;;11.24;100.00;99535.50;5031864;28;20033;-72
2023/01/20 07:40:58;;;;;;;7.40;4.10;;;;;;;11.62;100.00;99613.75;5035204;28;20108;-71
2023/01/20 07:43:23;;;;;;;;;;;;;;;11.58;100.00;99605.94;5035655;28;20030;-71
2023/01/20 07:45:49;;;;;;;5.30;2.92;;;;;;;10.98;100.00;99517.78;5035068;28;19966;-71
2023/01/20 07:48:14;;;;;;;7.78;3.10;;;;;;;10.89;100.00;99502.09;5034819;28;20120;-71
2023/01/20 07:50:40;;;;;;;3.20;1.92;;;;;;;11.39;100.00;99587.47;5034714;28;20383;-71
2023/01/20 07:53:05;;;;;;;8.00;3.45;;;;;;;11.33;100.00;99598.56;5033518;28;20034;-71
2023/01/20 07:55:32;;;;;;;3.97;2.15;;;;;;;11.21;100.00;99576.78;5034903;28;20029;-71
2023/01/20 07:57:58;;;;;;;5.63;2.30;;;;;;;11.22;100.00;99594.88;5034448;28;20403;-71
2023/01/20 08:00:23;;;;;;;3.95;2.15;;;;;;;10.71;100.00;99518.09;5034843;28;20022;-71
2023/01/20 08:02:49;;;;;;;4.78;2.42;;;;;;;11.14;100.00;99596.44;5034635;28;20057;-71
2023/01/20 08:05:14;;;;;;;3.53;2.00;;;;;;;11.06;100.00;99569.59;5034629;28;20112;-71
2023/01/20 08:07:39;;;;;;;5.88;2.28;;;;;;;10.92;100.00;99559.84;5034578;28;20056;-71
2023/01/20 08:10:05;;;;;;;5.25;3.03;;;;;;;10.93;100.00;99564.19;5034467;28;20025;-71
2023/01/20 08:12:31;;;;;;;6.45;3.17;;;;;;;10.80;100.00;99550.16;5034465;28;20049;-71
2023/01/20 08:14:56;;;;;;;6.40;3.80;;;;;;;11.00;100.00;99572.91;5034563;28;20029;-71
2023/01/20 08:17:22;;;;;;;8.75;4.65;;;;;;;11.09;100.00;99570.53;5034493;28;20503;-72
2023/01/20 08:19:47;;;;;;;6.75;4.75;;;;;;;11.09;100.00;99560.19;5033960;28;20104;-72
2023/01/20 08:22:12;;;;;;;6.32;3.95;;;;;;;11.27;100.00;99582.94;5033884;28;20040;-72
2023/01/20 08:24:38;;;;;;;5.28;3.85;;;;;;;10.91;100.00;99515.91;5034293;28;20060;-71
2023/01/20 08:27:03;;;;;;;10.73;6.00;;;;;;;11.41;100.00;99596.13;5034256;28;20029;-72
2023/01/20 08:29:30;;;;;;;9.38;4.80;;;;;;;11.52;100.00;99606.66;5033874;28;20109;-71
2023/01/20 08:32:00;;;;;;;9.40;5.10;;;;;;;11.58;100.00;99600.75;5033993;28;20064;-73
2023/01/20 08:34:27;;;;;;;8.05;5.88;;;;;;;11.66;100.00;99606.91;5033696;28;20561;-72
2023/01/20 08:36:55;;;;;;;7.95;5.13;;;;;;;11.68;100.00;99602.66;5033947;28;20060;-71
2023/01/20 08:39:21;;;;;;;7.70;4.45;;;;;;;11.48;100.00;99564.38;5033702;28;20026;-72
2023/01/20 08:41:48;;;;;;;7.75;4.78;;;;;;;11.89;100.00;99615.09;5034338;28;20038;-71
2023/01/20 08:44:14;;;;;;;7.28;4.82;;;;;;;11.45;100.00;99548.84;5034010;28;20101;-72
2023/01/20 08:46:40;;;;;;;8.52;4.25;;;;;;;11.75;100.00;99607.13;5033977;28;20030;-72
2023/01/20 08:49:08;;;;;;;9.18;5.43;;;;;;;11.80;100.00;99623.56;5033297;28;20033;-72
2023/01/20 08:51:35;;;;;;;7.78;5.30;;;;;;;11.64;100.00;99588.81;5033623;28;20022;-71
2023/01/20 08:54:01;;;;;;;9.23;5.50;;;;;;;11.79;100.00;99603.72;5033685;28;20068;-71
2023/01/20 08:56:28;;;;;;;7.95;5.00;;;;;;;11.51;100.00;99544.63;5048855;28;20032;-72
2023/01/20 08:58:55;;;;;;;11.15;6.38;;;;;;;11.78;100.00;99595.94;5033358;28;20437;-71
2023/01/20 09:01:23;;;;;;;10.85;6.00;;;;;;;11.84;100.00;99597.75;5033787;28;20018;-71
2023/01/20 09:03:49;;;;;;;8.52;5.00;;;;;;;11.65;100.00;99563.81;5033508;28;20357;-71
2023/01/20 09:06:16;;;;;;;7.10;5.07;;;;;;;11.80;100.00;99591.66;5033499;28;20462;-70
2023/01/20 09:08:41;;;;;;;7.63;5.05;;;;;;;11.40;100.00;99515.97;5033187;28;20029;-71
2023/01/20 09:11:13;;;;;;;10.35;5.40;;;;;;;11.80;100.00;99582.19;5033538;28;20395;-71
2023/01/20 09:13:39;;;;;;;8.73;4.78;;;;;;;11.70;100.00;99558.72;5033319;28;20025;-71
2023/01/20 09:16:05;;;;;;;9.57;4.90;;;;;;;11.65;100.00;99541.44;5033206;28;20491;-70
2023/01/20 09:18:31;;;;;;;7.70;5.03;;;;;;;11.59;100.00;99532.69;5033469;28;20037;-70
2023/01/20 09:21:05;;;;;;;8.63;5.90;;;;;;;11.60;100.00;99539.59;5033232;28;20022;-70
2023/01/20 09:23:32;;;;;;;6.18;4.43;;;;;;;11.59;100.00;99543.91;5047324;28;20045;-71
2023/01/20 09:26:03;;;;;;;8.70;4.45;;;;;;;11.06;100.00;99456.81;5031316;28;20091;-70
2023/01/20 09:28:29;;;;;;;7.63;4.68;;;;;;;11.62;100.00;99545.69;5032745;28;20483;-71
2023/01/20 09:30:58;;;;;;;9.43;5.45;;;;;;;11.64;100.00;99539.69;5032812;28;20031;-71
2023/01/20 09:33:24;;;;;;;8.90;5.95;;;;;;;11.69;100.00;99573.38;5033029;28;20036;-71
2023/01/20 09:35:54;;;;;;;7.20;4.18;;;;;;;11.63;100.00;99575.84;5032807;28;20037;-71
2023/01/20 09:44:36;;;;;;;2.65;1.83;;;;;;;11.02;100.00;99640.97;5032672;28;20036;-71
2023/01/20 09:47:26;;;;;;;4.63;2.40;;;;;;;10.84;100.00;99646.59;5032556;28;20037;-73
2023/01/20 09:53:42;;;;;;;3.17;1.70;;;;;;;10.62;100.00;99656.44;5032515;28;20072;-71
2023/01/20 09:56:12;;;;;;;2.88;1.20;;;;;;;10.02;100.00;99569.84;4990460;28;20078;-71
2023/01/20 09:58:45;;;;;;;3.05;0.80;;;;;;;9.93;100.00;99603.09;4990564;28;20034;-71
2023/01/20 10:01:23;;;;;;;5.30;0.93;;;;;;;9.97;100.00;99656.50;4989597;28;20129;-71
2023/01/20 10:03:56;;;;;;;1.85;0.80;;;;;;;9.92;100.00;99652.91;4990350;28;20042;-72
2023/01/20 10:06:28;;;;;;;4.35;1.00;;;;;;;9.88;100.00;99639.06;4990276;28;20042;-72
2023/01/20 10:09:00;;;;;;;4.78;1.13;;;;;;;9.84;100.00;99624.38;4990339;28;20037;-72
2023/01/20 10:11:30;;;;;;;2.55;0.77;;;;;;;9.53;100.00;99577.16;4990450;28;20030;-72
2023/01/20 10:14:05;;;;;;;2.58;1.05;;;;;;;9.67;100.00;99600.72;4990246;28;20084;-71
2023/01/20 10:16:38;;;;;;;2.65;1.00;;;;;;;9.65;100.00;99599.81;4984630;28;20050;-71
2023/01/20 10:19:16;;;;;;;2.80;1.08;;;;;;;9.18;100.00;99526.47;4970681;28;20030;-71
2023/01/20 10:21:54;;;;;;;5.88;1.20;;;;;;;9.50;100.00;99601.16;4970759;28;20141;-71
2023/01/20 10:24:30;;;;;;;3.83;1.08;;;;;;;9.39;100.00;99577.69;4970127;28;20102;-71
2023/01/20 10:27:03;;;;;;;4.97;0.98;;;;;;;8.87;100.00;99492.16;4969203;28;20049;-71
2023/01/20 10:29:38;;;;;;;2.30;1.10;;;;;;;9.51;100.00;99584.84;4970677;28;20037;-71
2023/01/20 10:32:20;;;;;;;2.10;1.10;;;;;;;9.53;100.00;99580.63;4960887;28;20515;-70
2023/01/20 10:34:48;;;;;;;3.67;1.38;;;;;;;9.42;100.00;99527.94;5011893;28;20026;-71
2023/01/20 10:37:14;;;;;;;4.00;1.00;;;;;;;9.63;100.00;99530.22;5011801;28;20065;-71
2023/01/20 10:40:00;;;;;;;2.55;1.00;;;;;;;9.47;100.00;99485.13;5005751;28;20029;-74
2023/01/20 10:42:27;;;;;;;3.13;0.90;;;;;;;9.71;100.00;99539.00;4991267;28;20041;-71
2023/01/20 10:44:53;;;;;;;1.20;0.82;;;;;;;9.61;100.00;99518.09;4991878;28;20027;-71
2023/01/20 10:47:57;;;;;;;1.33;1.08;;;;;;;9.72;100.00;99532.16;5006988;28;20120;-70
2023/01/20 10:50:49;;;;;;;2.40;1.20;;;;;;;9.73;100.00;99515.81;4990514;28;20035;-71
2023/01/20 10:53:20;;;;;;;2.08;1.30;;;;;;;9.71;100.00;99499.47;4949796;28;20070;-72
2023/01/20 10:55:58;;;;;;;1.95;1.30;;;;;;;9.68;100.00;99497.69;4950308;28;20468;-70
2023/01/20 10:58:27;;;;;;;2.17;0.85;;;;;;;9.40;100.00;99439.44;4951625;28;20094;-73
2023/01/20 11:00:54;;;;;;;1.77;1.13;;;;;;;9.49;100.00;99480.00;4949343;28;20126;-71
2023/01/20 11:03:22;;;;;;;1.75;1.10;;;;;;;9.49;100.00;99510.94;4949283;28;20027;-71
2023/01/20 11:05:50;;;;;;;2.78;1.00;;;;;;;9.49;100.00;99514.38;4949155;28;20512;-71
2023/01/20 11:08:21;;;;;;;1.40;1.00;;;;;;;9.50;100.00;99529.00;4948885;28;20035;-70
2023/01/20 11:10:50;;;;;;;1.15;0.85;;;;;;;9.39;100.00;99517.53;4949195;28;20510;-70
2023/01/20 11:13:16;;;;;;;2.45;1.05;;;;;;;9.50;100.00;99541.88;4950800;28;20053;-70
2023/01/20 11:15:50;;;;;;;1.45;0.68;;;;;;;8.97;100.00;99448.63;4949177;28;20106;-73
2023/01/20 11:18:16;;;;;;;1.13;0.85;;;;;;;9.50;100.00;99525.56;4949085;28;20568;-69
2023/01/20 11:21:09;;;;;;;1.25;0.82;;;;;;;9.38;100.00;99480.63;4948918;28;20028;-73
2023/01/20 11:23:47;;;;;;;1.55;0.80;;;;;;;9.33;100.00;99453.00;4909827;29;20475;-69
2023/01/20 11:26:31;;;;;;;6.32;1.15;;;;;;;9.44;100.00;99443.81;4888160;29;20464;-73
2023/01/20 11:29:01;;;;;;;1.02;0.77;;;;;;;9.44;100.00;99438.66;4873418;29;20065;-74
2023/01/20 11:31:43;;;;;;;2.42;1.00;;;;;;;9.35;100.00;99376.63;4910963;29;20055;-71
2023/01/20 11:34:47;;;;;;;0.60;0.60;;;;;;;9.24;100.00;99348.03;4919999;29;20118;-70
2023/01/20 11:37:33;;;;;;;4.93;0.73;;;;;;;9.16;100.00;99301.50;4911477;29;20052;-70
2023/01/20 11:40:14;;;;;;;1.30;0.65;;;;;;;9.29;100.00;99301.81;4911040;29;20048;-69
2023/01/20 11:42:43;;;;;;;0.80;0.80;;;;;;;9.25;100.00;99277.69;4911157;29;20036;-70
2023/01/20 11:45:24;;;;;;;1.40;0.60;;;;;;;9.38;100.00;99289.13;4911281;29;20044;-70
2023/01/20 11:48:14;;;;;;;1.80;0.60;;;;;;;9.37;100.00;99289.94;4910572;29;20507;-73
2023/01/20 11:51:00;;;;;;;1.35;0.90;;;;;;;9.57;100.00;99321.34;4910609;29;20534;-70
2023/01/20 11:53:27;;;;;;;1.58;1.00;;;;;;;9.69;100.00;99344.81;4909272;29;20225;-71
2023/01/20 11:55:57;;;;;;;0.68;0.65;;;;;;;9.74;100.00;99350.03;4910476;29;20103;-72